sensor_id;sensor_type;location;lat;lon;timestamp;pressure;altitude;pressure_sealevel;temperature;humidity
21401;BME280;18038;50.166;18.908;2023-02-28T00:02:26;99150.41;;;-3.06;51.10
21401;BME280;18038;50.166;18.908;2023-02-28T00:05:35;99144.34;;;-3.07;51.33
21401;BME280;18038;50.166;18.908;2023-02-28T00:08:41;99142.56;;;-3.06;51.50
21401;BME280;18038;50.166;18.908;2023-02-28T00:11:48;99147.94;;;-2.92;51.48
21401;BME280;18038;50.166;18.908;2023-02-28T00:14:55;99143.38;;;-2.88;50.94
21401;BME280;18038;50.166;18.908;2023-02-28T00:18:01;99157.09;;;-2.85;51.38
21401;BME280;18038;50.166;18.908;2023-02-28T00:21:11;99155.53;;;-2.72;51.05
21401;BME280;18038;50.166;18.908;2023-02-28T00:24:17;99161.44;;;-2.68;50.81
21401;BME280;18038;50.166;18.908;2023-02-28T00:27:23;99154.50;;;-2.69;51.00
21401;BME280;18038;50.166;18.908;2023-02-28T00:30:29;99153.44;;;-2.65;50.79
21401;BME280;18038;50.166;18.908;2023-02-28T00:33:40;99159.50;;;-2.64;51.00
21401;BME280;18038;50.166;18.908;2023-02-28T00:36:48;99159.84;;;-2.55;50.73
21401;BME280;18038;50.166;18.908;2023-02-28T00:39:55;99167.75;;;-2.56;51.56
21401;BME280;18038;50.166;18.908;2023-02-28T00:43:01;99169.13;;;-2.49;51.96
21401;BME280;18038;50.166;18.908;2023-02-28T00:46:09;99167.19;;;-2.46;51.69
21401;BME280;18038;50.166;18.908;2023-02-28T00:49:15;99167.28;;;-2.47;51.90
21401;BME280;18038;50.166;18.908;2023-02-28T00:52:24;99159.75;;;-2.37;51.72
21401;BME280;18038;50.166;18.908;2023-02-28T00:55:30;99166.75;;;-2.38;51.03
21401;BME280;18038;50.166;18.908;2023-02-28T00:58:37;99164.91;;;-2.36;51.80
21401;BME280;18038;50.166;18.908;2023-02-28T01:01:44;99168.09;;;-2.31;51.47
21401;BME280;18038;50.166;18.908;2023-02-28T01:04:52;99174.00;;;-2.27;51.15
21401;BME280;18038;50.166;18.908;2023-02-28T01:08:01;99171.66;;;-2.32;51.07
21401;BME280;18038;50.166;18.908;2023-02-28T01:11:10;99169.63;;;-2.42;51.07
21401;BME280;18038;50.166;18.908;2023-02-28T01:14:18;99161.03;;;-2.44;51.44
21401;BME280;18038;50.166;18.908;2023-02-28T01:17:25;99158.31;;;-2.43;51.26
21401;BME280;18038;50.166;18.908;2023-02-28T01:20:32;99155.38;;;-2.53;51.82
21401;BME280;18038;50.166;18.908;2023-02-28T01:23:42;99151.06;;;-2.70;52.57
21401;BME280;18038;50.166;18.908;2023-02-28T01:26:48;99155.97;;;-2.63;52.84
21401;BME280;18038;50.166;18.908;2023-02-28T01:29:57;99150.81;;;-2.65;52.79
21401;BME280;18038;50.166;18.908;2023-02-28T01:33:02;99151.41;;;-2.76;53.45
21401;BME280;18038;50.166;18.908;2023-02-28T01:36:12;99139.38;;;-2.96;53.85
21401;BME280;18038;50.166;18.908;2023-02-28T01:39:23;99143.47;;;-2.90;54.12
21401;BME280;18038;50.166;18.908;2023-02-28T01:42:29;99138.53;;;-3.12;54.47
21401;BME280;18038;50.166;18.908;2023-02-28T01:45:35;99138.09;;;-3.20;54.99
21401;BME280;18038;50.166;18.908;2023-02-28T01:48:46;99141.03;;;-3.26;55.12
21401;BME280;18038;50.166;18.908;2023-02-28T01:51:56;99142.63;;;-3.24;55.47
21401;BME280;18038;50.166;18.908;2023-02-28T01:55:08;99139.75;;;-3.19;54.96
21401;BME280;18038;50.166;18.908;2023-02-28T01:58:17;99142.94;;;-3.30;55.12
21401;BME280;18038;50.166;18.908;2023-02-28T02:01:27;99142.31;;;-3.35;54.83
21401;BME280;18038;50.166;18.908;2023-02-28T02:04:41;99140.81;;;-3.39;54.74
21401;BME280;18038;50.166;18.908;2023-02-28T02:07:57;99136.59;;;-3.42;55.10
21401;BME280;18038;50.166;18.908;2023-02-28T02:11:19;99143.19;;;-3.35;55.12
21401;BME280;18038;50.166;18.908;2023-02-28T02:14:40;99134.50;;;-3.35;54.70
21401;BME280;18038;50.166;18.908;2023-02-28T02:18:01;99135.00;;;-3.44;55.19
21401;BME280;18038;50.166;18.908;2023-02-28T02:25:27;99138.66;;;-3.48;55.44
21401;BME280;18038;50.166;18.908;2023-02-28T02:29:00;99138.22;;;-3.57;55.71
21401;BME280;18038;50.166;18.908;2023-02-28T02:33:05;99132.25;;;-3.59;56.08
21401;BME280;18038;50.166;18.908;2023-02-28T02:36:31;99123.53;;;-3.59;56.59
21401;BME280;18038;50.166;18.908;2023-02-28T02:39:49;99130.53;;;-3.60;56.44
21401;BME280;18038;50.166;18.908;2023-02-28T02:43:18;99134.94;;;-3.78;56.83
21401;BME280;18038;50.166;18.908;2023-02-28T02:46:35;99134.47;;;-3.86;57.63
21401;BME280;18038;50.166;18.908;2023-02-28T02:49:49;99139.06;;;-3.91;57.67
21401;BME280;18038;50.166;18.908;2023-02-28T02:53:06;99137.34;;;-3.90;57.61
21401;BME280;18038;50.166;18.908;2023-02-28T02:56:20;99137.47;;;-3.93;57.69
21401;BME280;18038;50.166;18.908;2023-02-28T02:59:34;99142.38;;;-4.05;57.67
21401;BME280;18038;50.166;18.908;2023-02-28T03:02:46;99134.84;;;-4.11;57.91
21401;BME280;18038;50.166;18.908;2023-02-28T03:05:55;99141.28;;;-4.18;58.32
21401;BME280;18038;50.166;18.908;2023-02-28T03:09:10;99138.53;;;-4.15;58.56
21401;BME280;18038;50.166;18.908;2023-02-28T03:12:28;99150.09;;;-4.20;58.43
21401;BME280;18038;50.166;18.908;2023-02-28T03:15:58;99151.41;;;-4.29;59.39
21401;BME280;18038;50.166;18.908;2023-02-28T03:23:13;99145.84;;;-4.40;59.77
21401;BME280;18038;50.166;18.908;2023-02-28T03:26:27;99151.28;;;-4.45;59.94
21401;BME280;18038;50.166;18.908;2023-02-28T03:29:40;99147.91;;;-4.47;60.30
21401;BME280;18038;50.166;18.908;2023-02-28T03:32:57;99145.84;;;-4.59;60.84
21401;BME280;18038;50.166;18.908;2023-02-28T03:36:15;99149.06;;;-4.72;61.38
21401;BME280;18038;50.166;18.908;2023-02-28T03:39:31;99139.53;;;-4.73;61.74
21401;BME280;18038;50.166;18.908;2023-02-28T03:42:52;99148.38;;;-4.75;61.87
21401;BME280;18038;50.166;18.908;2023-02-28T03:46:10;99143.41;;;-4.81;62.11
21401;BME280;18038;50.166;18.908;2023-02-28T03:49:30;99152.66;;;-4.74;62.03
21401;BME280;18038;50.166;18.908;2023-02-28T03:52:46;99154.41;;;-4.75;62.37
21401;BME280;18038;50.166;18.908;2023-02-28T03:56:01;99162.28;;;-4.76;62.38
21401;BME280;18038;50.166;18.908;2023-02-28T03:59:21;99170.59;;;-4.87;62.79
21401;BME280;18038;50.166;18.908;2023-02-28T04:02:39;99169.91;;;-4.91;63.11
21401;BME280;18038;50.166;18.908;2023-02-28T04:05:50;99164.75;;;-4.92;63.61
21401;BME280;18038;50.166;18.908;2023-02-28T04:08:59;99152.56;;;-4.92;63.71
21401;BME280;18038;50.166;18.908;2023-02-28T04:12:06;99169.81;;;-4.89;64.07
21401;BME280;18038;50.166;18.908;2023-02-28T04:15:16;99171.78;;;-4.94;64.37
21401;BME280;18038;50.166;18.908;2023-02-28T04:18:25;99176.59;;;-5.04;65.17
21401;BME280;18038;50.166;18.908;2023-02-28T04:21:34;99178.59;;;-5.11;65.39
21401;BME280;18038;50.166;18.908;2023-02-28T04:24:41;99178.41;;;-5.06;65.50
21401;BME280;18038;50.166;18.908;2023-02-28T04:27:53;99181.81;;;-5.04;65.72
21401;BME280;18038;50.166;18.908;2023-02-28T04:31:04;99186.88;;;-5.01;65.73
21401;BME280;18038;50.166;18.908;2023-02-28T04:34:16;99194.84;;;-5.04;65.87
21401;BME280;18038;50.166;18.908;2023-02-28T04:37:25;99187.69;;;-5.19;66.49
21401;BME280;18038;50.166;18.908;2023-02-28T04:40:32;99186.97;;;-5.23;66.85
21401;BME280;18038;50.166;18.908;2023-02-28T04:43:38;99188.22;;;-5.31;67.28
21401;BME280;18038;50.166;18.908;2023-02-28T04:46:48;99201.31;;;-5.33;67.65
21401;BME280;18038;50.166;18.908;2023-02-28T04:49:54;99193.75;;;-5.39;67.75
21401;BME280;18038;50.166;18.908;2023-02-28T04:53:01;99189.41;;;-5.39;67.95
21401;BME280;18038;50.166;18.908;2023-02-28T04:56:09;99179.97;;;-5.41;68.09
21401;BME280;18038;50.166;18.908;2023-02-28T04:59:18;99181.91;;;-5.46;68.51
21401;BME280;18038;50.166;18.908;2023-02-28T05:02:26;99188.75;;;-5.44;68.48
21401;BME280;18038;50.166;18.908;2023-02-28T05:05:33;99186.06;;;-5.42;68.27
21401;BME280;18038;50.166;18.908;2023-02-28T05:08:39;99189.47;;;-5.40;68.65
21401;BME280;18038;50.166;18.908;2023-02-28T05:11:46;99183.66;;;-5.47;68.98
21401;BME280;18038;50.166;18.908;2023-02-28T05:14:52;99182.16;;;-5.52;69.42
21401;BME280;18038;50.166;18.908;2023-02-28T05:18:02;99188.84;;;-5.47;69.32
21401;BME280;18038;50.166;18.908;2023-02-28T05:21:28;99184.53;;;-5.46;69.29
21401;BME280;18038;50.166;18.908;2023-02-28T05:24:37;99185.50;;;-5.49;69.44
21401;BME280;18038;50.166;18.908;2023-02-28T05:27:49;99199.53;;;-5.53;69.68
21401;BME280;18038;50.166;18.908;2023-02-28T05:30:57;99204.88;;;-5.56;70.05
21401;BME280;18038;50.166;18.908;2023-02-28T05:34:14;99210.47;;;-5.65;70.32
21401;BME280;18038;50.166;18.908;2023-02-28T05:37:21;99203.53;;;-5.65;70.49
21401;BME280;18038;50.166;18.908;2023-02-28T05:40:26;99214.59;;;-5.60;70.68
21401;BME280;18038;50.166;18.908;2023-02-28T05:43:33;99206.69;;;-5.58;70.50
21401;BME280;18038;50.166;18.908;2023-02-28T05:46:40;99203.56;;;-5.66;70.77
21401;BME280;18038;50.166;18.908;2023-02-28T05:49:49;99214.69;;;-5.63;70.80
21401;BME280;18038;50.166;18.908;2023-02-28T05:52:55;99211.13;;;-5.60;70.85
21401;BME280;18038;50.166;18.908;2023-02-28T05:56:03;99221.75;;;-5.65;70.92
21401;BME280;18038;50.166;18.908;2023-02-28T05:59:10;99226.50;;;-5.54;70.91
21401;BME280;18038;50.166;18.908;2023-02-28T06:02:18;99227.16;;;-5.49;70.71
21401;BME280;18038;50.166;18.908;2023-02-28T06:05:26;99228.84;;;-5.48;70.65
21401;BME280;18038;50.166;18.908;2023-02-28T06:08:33;99233.22;;;-5.48;70.81
21401;BME280;18038;50.166;18.908;2023-02-28T06:11:39;99232.28;;;-5.47;70.89
21401;BME280;18038;50.166;18.908;2023-02-28T06:14:46;99243.31;;;-5.41;71.22
21401;BME280;18038;50.166;18.908;2023-02-28T06:17:52;99235.09;;;-5.31;70.56
21401;BME280;18038;50.166;18.908;2023-02-28T06:21:02;99241.59;;;-5.21;70.46
21401;BME280;18038;50.166;18.908;2023-02-28T06:24:08;99243.75;;;-5.11;70.09
21401;BME280;18038;50.166;18.908;2023-02-28T06:27:15;99245.75;;;-4.97;69.36
21401;BME280;18038;50.166;18.908;2023-02-28T06:30:22;99252.53;;;-4.93;69.26
21401;BME280;18038;50.166;18.908;2023-02-28T06:33:31;99251.06;;;-4.79;68.56
21401;BME280;18038;50.166;18.908;2023-02-28T06:36:40;99255.09;;;-4.72;68.70
21401;BME280;18038;50.166;18.908;2023-02-28T06:39:51;99254.47;;;-4.58;68.03
21401;BME280;18038;50.166;18.908;2023-02-28T06:42:58;99259.69;;;-4.39;67.68
21401;BME280;18038;50.166;18.908;2023-02-28T06:46:23;99259.63;;;-4.19;66.27
21401;BME280;18038;50.166;18.908;2023-02-28T06:49:29;99259.97;;;-3.71;65.17
21401;BME280;18038;50.166;18.908;2023-02-28T06:52:39;99262.53;;;-3.18;64.23
21401;BME280;18038;50.166;18.908;2023-02-28T06:55:45;99260.34;;;-2.92;61.68
21401;BME280;18038;50.166;18.908;2023-02-28T06:59:00;99259.44;;;-2.58;61.00
21401;BME280;18038;50.166;18.908;2023-02-28T07:02:12;99274.94;;;-2.88;61.09
21401;BME280;18038;50.166;18.908;2023-02-28T07:05:19;99274.41;;;-2.95;61.91
21401;BME280;18038;50.166;18.908;2023-02-28T07:08:28;99279.34;;;-2.55;61.03
21401;BME280;18038;50.166;18.908;2023-02-28T07:11:35;99274.72;;;-2.50;60.30
21401;BME280;18038;50.166;18.908;2023-02-28T07:14:41;99278.81;;;-2.62;60.61
21401;BME280;18038;50.166;18.908;2023-02-28T07:17:47;99280.09;;;-2.37;60.17
21401;BME280;18038;50.166;18.908;2023-02-28T07:20:53;99279.69;;;-2.46;59.56
21401;BME280;18038;50.166;18.908;2023-02-28T07:24:03;99287.38;;;-2.76;60.45
21401;BME280;18038;50.166;18.908;2023-02-28T07:27:09;99280.59;;;-2.80;61.18
21401;BME280;18038;50.166;18.908;2023-02-28T07:30:28;99285.09;;;-2.49;60.18
21401;BME280;18038;50.166;18.908;2023-02-28T07:33:35;99281.72;;;-2.84;60.69
21401;BME280;18038;50.166;18.908;2023-02-28T07:36:43;99289.81;;;-2.55;60.45
21401;BME280;18038;50.166;18.908;2023-02-28T07:39:53;99290.44;;;-1.55;57.50
21401;BME280;18038;50.166;18.908;2023-02-28T07:43:01;99282.22;;;-0.60;54.48
21401;BME280;18038;50.166;18.908;2023-02-28T07:46:11;99274.50;;;-0.34;52.09
21401;BME280;18038;50.166;18.908;2023-02-28T07:49:20;99282.56;;;-0.80;53.09
21401;BME280;18038;50.166;18.908;2023-02-28T07:52:26;99279.31;;;0.01;51.49
21401;BME280;18038;50.166;18.908;2023-02-28T07:55:35;99294.41;;;0.11;50.99
21401;BME280;18038;50.166;18.908;2023-02-28T07:58:41;99294.50;;;0.64;49.22
21401;BME280;18038;50.166;18.908;2023-02-28T08:01:48;99284.66;;;0.40;49.40
21401;BME280;18038;50.166;18.908;2023-02-28T08:04:54;99289.53;;;0.47;49.39
21401;BME280;18038;50.166;18.908;2023-02-28T08:08:04;99288.28;;;0.25;48.97
21401;BME280;18038;50.166;18.908;2023-02-28T08:11:13;99275.72;;;0.16;48.52
21401;BME280;18038;50.166;18.908;2023-02-28T08:14:21;99286.91;;;-0.65;49.54
21401;BME280;18038;50.166;18.908;2023-02-28T08:17:28;99287.50;;;-0.90;50.49
21401;BME280;18038;50.166;18.908;2023-02-28T08:20:37;99289.44;;;-1.08;50.31
21401;BME280;18038;50.166;18.908;2023-02-28T08:23:45;99297.44;;;-0.95;50.21
21401;BME280;18038;50.166;18.908;2023-02-28T08:26:55;99285.66;;;-0.88;50.47
21401;BME280;18038;50.166;18.908;2023-02-28T08:30:03;99292.31;;;-1.43;50.54
21401;BME280;18038;50.166;18.908;2023-02-28T08:33:12;99289.69;;;-1.73;51.08
21401;BME280;18038;50.166;18.908;2023-02-28T08:36:19;99283.16;;;-1.82;51.25
21401;BME280;18038;50.166;18.908;2023-02-28T08:39:26;99291.00;;;-1.66;50.82
21401;BME280;18038;50.166;18.908;2023-02-28T08:42:34;99294.91;;;-1.57;50.46
21401;BME280;18038;50.166;18.908;2023-02-28T08:45:42;99287.25;;;-1.46;49.32
21401;BME280;18038;50.166;18.908;2023-02-28T08:48:52;99295.34;;;-1.65;49.59
21401;BME280;18038;50.166;18.908;2023-02-28T08:52:05;99279.88;;;-1.85;49.52
21401;BME280;18038;50.166;18.908;2023-02-28T08:55:16;99296.75;;;-1.59;48.99
21401;BME280;18038;50.166;18.908;2023-02-28T08:58:25;99276.78;;;-1.46;48.84
21401;BME280;18038;50.166;18.908;2023-02-28T09:01:31;99290.31;;;-1.53;49.41
21401;BME280;18038;50.166;18.908;2023-02-28T09:04:40;99302.03;;;-1.45;49.93
21401;BME280;18038;50.166;18.908;2023-02-28T09:07:47;99298.38;;;-1.56;48.65
21401;BME280;18038;50.166;18.908;2023-02-28T09:10:56;99301.88;;;-1.11;48.38
21401;BME280;18038;50.166;18.908;2023-02-28T09:14:13;99299.97;;;-0.79;47.10
21401;BME280;18038;50.166;18.908;2023-02-28T09:17:20;99300.16;;;-0.97;46.88
21401;BME280;18038;50.166;18.908;2023-02-28T09:20:31;99301.69;;;-0.78;46.91
21401;BME280;18038;50.166;18.908;2023-02-28T09:23:38;99299.22;;;-0.81;46.38
21401;BME280;18038;50.166;18.908;2023-02-28T09:26:44;99293.91;;;-0.37;45.43
21401;BME280;18038;50.166;18.908;2023-02-28T09:30:10;99291.38;;;-0.24;44.55
21401;BME280;18038;50.166;18.908;2023-02-28T09:33:18;99288.91;;;0.02;44.29
21401;BME280;18038;50.166;18.908;2023-02-28T09:36:28;99289.59;;;0.18;43.60
21401;BME280;18038;50.166;18.908;2023-02-28T09:39:46;99289.69;;;-0.25;43.97
21401;BME280;18038;50.166;18.908;2023-02-28T09:42:56;99290.94;;;0.11;44.04
21401;BME280;18038;50.166;18.908;2023-02-28T09:46:27;99298.88;;;-0.32;44.33
21401;BME280;18038;50.166;18.908;2023-02-28T09:49:42;99299.00;;;0.08;43.94
21401;BME280;18038;50.166;18.908;2023-02-28T09:52:54;99296.09;;;1.70;42.24
21401;BME280;18038;50.166;18.908;2023-02-28T09:56:05;99304.16;;;1.93;40.12
21401;BME280;18038;50.166;18.908;2023-02-28T09:59:27;99296.34;;;2.52;39.54
21401;BME280;18038;50.166;18.908;2023-02-28T10:03:04;99300.16;;;1.75;40.31
21401;BME280;18038;50.166;18.908;2023-02-28T10:06:29;99289.03;;;2.80;38.57
21401;BME280;18038;50.166;18.908;2023-02-28T10:09:41;99292.81;;;3.46;38.03
21401;BME280;18038;50.166;18.908;2023-02-28T10:12:52;99300.03;;;3.44;37.29
21401;BME280;18038;50.166;18.908;2023-02-28T10:16:06;99301.91;;;3.20;37.99
21401;BME280;18038;50.166;18.908;2023-02-28T10:19:23;99289.03;;;4.39;36.10
21401;BME280;18038;50.166;18.908;2023-02-28T10:22:44;99289.13;;;3.72;36.01
21401;BME280;18038;50.166;18.908;2023-02-28T10:26:03;99298.34;;;3.43;35.92
21401;BME280;18038;50.166;18.908;2023-02-28T10:29:19;99290.19;;;3.00;36.56
21401;BME280;18038;50.166;18.908;2023-02-28T10:32:27;99281.16;;;2.56;37.90
21401;BME280;18038;50.166;18.908;2023-02-28T10:35:40;99274.13;;;4.38;36.31
21401;BME280;18038;50.166;18.908;2023-02-28T10:38:47;99276.78;;;4.27;35.03
21401;BME280;18038;50.166;18.908;2023-02-28T10:41:54;99277.06;;;4.56;35.04
21401;BME280;18038;50.166;18.908;2023-02-28T10:45:12;99273.91;;;4.19;34.71
21401;BME280;18038;50.166;18.908;2023-02-28T10:48:30;99269.72;;;4.16;35.41
21401;BME280;18038;50.166;18.908;2023-02-28T10:51:42;99262.66;;;4.17;35.46
21401;BME280;18038;50.166;18.908;2023-02-28T10:54:48;99257.72;;;4.12;35.92
21401;BME280;18038;50.166;18.908;2023-02-28T10:57:55;99260.16;;;3.81;36.32
21401;BME280;18038;50.166;18.908;2023-02-28T11:01:02;99258.63;;;3.67;35.95
21401;BME280;18038;50.166;18.908;2023-02-28T11:04:19;99253.78;;;4.06;36.34
21401;BME280;18038;50.166;18.908;2023-02-28T11:07:41;99254.13;;;4.45;34.70
21401;BME280;18038;50.166;18.908;2023-02-28T11:11:00;99252.34;;;4.34;35.39
21401;BME280;18038;50.166;18.908;2023-02-28T11:14:19;99240.19;;;4.96;34.52
21401;BME280;18038;50.166;18.908;2023-02-28T11:17:30;99232.38;;;4.42;34.89
21401;BME280;18038;50.166;18.908;2023-02-28T11:20:39;99224.34;;;4.43;34.88
21401;BME280;18038;50.166;18.908;2023-02-28T11:23:51;99240.69;;;4.37;35.05
21401;BME280;18038;50.166;18.908;2023-02-28T11:27:04;99220.97;;;4.41;34.87
21401;BME280;18038;50.166;18.908;2023-02-28T11:30:34;99230.03;;;4.59;34.75
21401;BME280;18038;50.166;18.908;2023-02-28T11:33:45;99231.91;;;4.90;35.04
21401;BME280;18038;50.166;18.908;2023-02-28T11:36:55;99224.78;;;4.69;35.47
21401;BME280;18038;50.166;18.908;2023-02-28T11:40:13;99210.00;;;4.67;34.64
21401;BME280;18038;50.166;18.908;2023-02-28T11:43:34;99207.81;;;4.72;35.16
21401;BME280;18038;50.166;18.908;2023-02-28T11:47:02;99206.66;;;4.44;35.24
21401;BME280;18038;50.166;18.908;2023-02-28T11:50:24;99200.91;;;5.22;35.02
21401;BME280;18038;50.166;18.908;2023-02-28T11:54:00;99194.94;;;4.78;35.05
21401;BME280;18038;50.166;18.908;2023-02-28T11:57:33;99197.72;;;3.80;37.00
21401;BME280;18038;50.166;18.908;2023-02-28T12:01:06;99196.25;;;3.87;36.59
21401;BME280;18038;50.166;18.908;2023-02-28T12:04:28;99199.25;;;3.83;37.12
21401;BME280;18038;50.166;18.908;2023-02-28T12:07:59;99198.22;;;4.92;37.20
21401;BME280;18038;50.166;18.908;2023-02-28T12:11:40;99197.25;;;5.85;34.14
21401;BME280;18038;50.166;18.908;2023-02-28T12:15:17;99182.47;;;5.21;34.32
21401;BME280;18038;50.166;18.908;2023-02-28T12:18:51;99185.72;;;5.03;34.71
21401;BME280;18038;50.166;18.908;2023-02-28T12:22:26;99191.97;;;4.40;35.55
21401;BME280;18038;50.166;18.908;2023-02-28T12:25:47;99192.19;;;4.69;35.09
21401;BME280;18038;50.166;18.908;2023-02-28T12:29:12;99190.84;;;4.74;36.56
21401;BME280;18038;50.166;18.908;2023-02-28T12:32:31;99192.44;;;5.08;34.76
21401;BME280;18038;50.166;18.908;2023-02-28T12:35:52;99182.66;;;5.60;35.17
21401;BME280;18038;50.166;18.908;2023-02-28T12:39:06;99179.38;;;5.87;34.03
21401;BME280;18038;50.166;18.908;2023-02-28T12:42:24;99179.88;;;5.61;34.09
21401;BME280;18038;50.166;18.908;2023-02-28T12:45:41;99174.22;;;5.45;35.08
21401;BME280;18038;50.166;18.908;2023-02-28T12:48:59;99179.88;;;5.00;33.98
21401;BME280;18038;50.166;18.908;2023-02-28T12:52:23;99176.41;;;5.40;34.15
21401;BME280;18038;50.166;18.908;2023-02-28T12:55:45;99177.66;;;5.66;33.82
21401;BME280;18038;50.166;18.908;2023-02-28T12:59:00;99174.94;;;4.95;34.46
21401;BME280;18038;50.166;18.908;2023-02-28T13:02:39;99175.59;;;4.88;34.63
21401;BME280;18038;50.166;18.908;2023-02-28T13:10:00;99172.47;;;4.73;34.66
21401;BME280;18038;50.166;18.908;2023-02-28T13:13:16;99173.47;;;4.40;36.08
21401;BME280;18038;50.166;18.908;2023-02-28T13:16:54;99172.75;;;4.37;35.52
21401;BME280;18038;50.166;18.908;2023-02-28T13:20:02;99164.91;;;4.68;35.65
21401;BME280;18038;50.166;18.908;2023-02-28T13:27:37;99162.50;;;4.86;35.69
21401;BME280;18038;50.166;18.908;2023-02-28T13:31:03;99159.22;;;3.99;36.33
21401;BME280;18038;50.166;18.908;2023-02-28T13:34:16;99156.63;;;4.20;36.72
21401;BME280;18038;50.166;18.908;2023-02-28T13:37:41;99157.28;;;4.33;36.44
21401;BME280;18038;50.166;18.908;2023-02-28T13:40:50;99154.13;;;4.07;37.17
21401;BME280;18038;50.166;18.908;2023-02-28T13:44:05;99144.41;;;2.74;38.42
21401;BME280;18038;50.166;18.908;2023-02-28T13:47:24;99159.88;;;2.32;40.29
21401;BME280;18038;50.166;18.908;2023-02-28T13:50:37;99154.06;;;2.15;40.58
21401;BME280;18038;50.166;18.908;2023-02-28T13:54:00;99151.38;;;2.04;41.02
21401;BME280;18038;50.166;18.908;2023-02-28T13:57:27;99142.91;;;1.14;43.02
21401;BME280;18038;50.166;18.908;2023-02-28T14:01:25;99143.78;;;1.02;43.30
21401;BME280;18038;50.166;18.908;2023-02-28T14:05:00;99135.47;;;1.08;43.50
21401;BME280;18038;50.166;18.908;2023-02-28T14:08:15;99141.13;;;1.15;44.06
21401;BME280;18038;50.166;18.908;2023-02-28T14:11:29;99127.53;;;1.34;43.32
21401;BME280;18038;50.166;18.908;2023-02-28T14:14:55;99126.28;;;1.26;43.39
21401;BME280;18038;50.166;18.908;2023-02-28T14:18:18;99128.78;;;1.28;43.78
21401;BME280;18038;50.166;18.908;2023-02-28T14:21:31;99119.00;;;1.17;44.37
21401;BME280;18038;50.166;18.908;2023-02-28T14:25:04;99116.13;;;0.83;44.52
21401;BME280;18038;50.166;18.908;2023-02-28T14:28:25;99122.31;;;0.82;44.81
21401;BME280;18038;50.166;18.908;2023-02-28T14:31:58;99121.25;;;0.98;44.52
21401;BME280;18038;50.166;18.908;2023-02-28T14:35:45;99120.44;;;0.84;45.04
21401;BME280;18038;50.166;18.908;2023-02-28T14:39:13;99100.97;;;1.00;44.14
21401;BME280;18038;50.166;18.908;2023-02-28T14:42:32;99111.50;;;0.87;45.03
21401;BME280;18038;50.166;18.908;2023-02-28T14:45:41;99117.81;;;0.84;44.61
21401;BME280;18038;50.166;18.908;2023-02-28T14:48:48;99121.94;;;0.76;44.50
21401;BME280;18038;50.166;18.908;2023-02-28T14:52:09;99115.19;;;0.72;44.83
21401;BME280;18038;50.166;18.908;2023-02-28T14:55:24;99115.38;;;0.94;44.79
21401;BME280;18038;50.166;18.908;2023-02-28T14:58:34;99119.06;;;0.92;43.84
21401;BME280;18038;50.166;18.908;2023-02-28T15:01:40;99121.19;;;0.74;44.30
21401;BME280;18038;50.166;18.908;2023-02-28T15:04:55;99119.16;;;0.65;44.39
21401;BME280;18038;50.166;18.908;2023-02-28T15:08:12;99119.59;;;0.71;44.23
21401;BME280;18038;50.166;18.908;2023-02-28T15:11:21;99119.06;;;0.66;44.47
21401;BME280;18038;50.166;18.908;2023-02-28T15:14:27;99117.94;;;0.70;44.82
21401;BME280;18038;50.166;18.908;2023-02-28T15:17:35;99109.81;;;0.48;44.60
21401;BME280;18038;50.166;18.908;2023-02-28T15:20:44;99116.03;;;0.47;45.20
21401;BME280;18038;50.166;18.908;2023-02-28T15:23:56;99117.69;;;0.48;45.68
21401;BME280;18038;50.166;18.908;2023-02-28T15:27:10;99113.06;;;0.51;44.69
21401;BME280;18038;50.166;18.908;2023-02-28T15:30:26;99112.22;;;0.51;45.08
21401;BME280;18038;50.166;18.908;2023-02-28T15:33:35;99110.31;;;0.27;45.49
21401;BME280;18038;50.166;18.908;2023-02-28T15:36:42;99110.97;;;0.31;46.23
21401;BME280;18038;50.166;18.908;2023-02-28T15:39:52;99107.59;;;0.29;46.52
21401;BME280;18038;50.166;18.908;2023-02-28T15:43:05;99114.94;;;0.24;47.21
21401;BME280;18038;50.166;18.908;2023-02-28T15:46:13;99114.19;;;0.22;46.55
21401;BME280;18038;50.166;18.908;2023-02-28T15:49:22;99112.19;;;0.12;46.32
21401;BME280;18038;50.166;18.908;2023-02-28T15:52:37;99118.19;;;0.14;46.78
21401;BME280;18038;50.166;18.908;2023-02-28T15:55:58;99117.44;;;0.12;46.66
21401;BME280;18038;50.166;18.908;2023-02-28T15:59:12;99116.50;;;0.13;46.84
21401;BME280;18038;50.166;18.908;2023-02-28T16:02:30;99112.63;;;0.19;46.90
21401;BME280;18038;50.166;18.908;2023-02-28T16:05:37;99119.38;;;0.23;46.56
21401;BME280;18038;50.166;18.908;2023-02-28T16:08:44;99122.16;;;0.07;46.59
21401;BME280;18038;50.166;18.908;2023-02-28T16:12:00;99123.38;;;-0.11;47.26
21401;BME280;18038;50.166;18.908;2023-02-28T16:15:20;99121.78;;;-0.14;47.06
21401;BME280;18038;50.166;18.908;2023-02-28T16:18:28;99122.53;;;-0.12;47.18
21401;BME280;18038;50.166;18.908;2023-02-28T16:21:40;99117.13;;;-0.23;47.34
21401;BME280;18038;50.166;18.908;2023-02-28T16:24:46;99129.19;;;-0.33;47.89
21401;BME280;18038;50.166;18.908;2023-02-28T16:27:58;99127.97;;;-0.42;48.47
21401;BME280;18038;50.166;18.908;2023-02-28T16:31:15;99122.94;;;-0.45;48.25
21401;BME280;18038;50.166;18.908;2023-02-28T16:34:26;99129.50;;;-0.52;49.04
21401;BME280;18038;50.166;18.908;2023-02-28T16:37:32;99137.00;;;-0.60;49.11
21401;BME280;18038;50.166;18.908;2023-02-28T16:40:42;99131.41;;;-0.68;49.80
21401;BME280;18038;50.166;18.908;2023-02-28T16:43:53;99138.44;;;-0.69;49.37
21401;BME280;18038;50.166;18.908;2023-02-28T16:47:10;99133.19;;;-0.69;50.02
21401;BME280;18038;50.166;18.908;2023-02-28T16:50:23;99144.34;;;-0.65;50.26
21401;BME280;18038;50.166;18.908;2023-02-28T16:53:31;99145.28;;;-0.66;50.23
21401;BME280;18038;50.166;18.908;2023-02-28T16:56:44;99142.97;;;-0.85;50.85
21401;BME280;18038;50.166;18.908;2023-02-28T16:59:57;99149.16;;;-1.15;51.17
21401;BME280;18038;50.166;18.908;2023-02-28T17:03:03;99155.13;;;-1.27;51.14
21401;BME280;18038;50.166;18.908;2023-02-28T17:06:19;99148.94;;;-1.41;51.95
21401;BME280;18038;50.166;18.908;2023-02-28T17:09:27;99155.28;;;-1.45;52.01
21401;BME280;18038;50.166;18.908;2023-02-28T17:12:44;99154.06;;;-1.53;52.50
21401;BME280;18038;50.166;18.908;2023-02-28T17:15:53;99156.63;;;-1.52;52.19